Time;durP1;ratioP1;P1;durP2;ratioP2;P2;SDS_P1;SDS_P2;PMS_P1;PMS_P2;Temp;Humidity;BMP_temperature;BMP_pressure;BME280_temperature;BME280_humidity;BME280_pressure;Samples;Min_cycle;Max_cycle;Signal;HPM_P1;HPM_P2
2023/05/06 00:00:59;;;;;;;4.00;2.35;;;14.90;99.90;;;17.76;55.64;97716.50;5013222;28;20045;-36
2023/05/06 00:03:27;;;;;;;3.20;2.47;;;14.90;99.90;;;17.65;56.03;97710.69;5012885;28;20068;-36
2023/05/06 00:05:55;;;;;;;3.00;2.65;;;14.80;99.90;;;17.62;56.18;97711.13;5011769;28;20042;-37
2023/05/06 00:08:23;;;;;;;2.85;2.50;;;14.80;99.90;;;17.59;56.21;97714.22;5012702;28;20042;-37
2023/05/06 00:10:50;;;;;;;6.53;2.70;;;14.80;99.90;;;17.45;56.85;97709.84;4994728;28;20056;-37
2023/05/06 00:13:18;;;;;;;3.60;2.80;;;14.70;99.90;;;17.51;56.33;97709.84;4995262;28;20038;-36
2023/05/06 00:15:46;;;;;;;3.13;2.45;;;14.60;99.90;;;17.52;56.33;97710.66;5012663;28;20045;-36
2023/05/06 00:18:14;;;;;;;7.50;3.20;;;14.70;99.90;;;17.43;56.63;97704.66;4995150;28;20038;-36
2023/05/06 00:20:42;;;;;;;5.65;2.92;;;14.70;99.90;;;17.49;56.71;97706.53;5011966;28;20438;-36
2023/05/06 00:23:09;;;;;;;7.15;3.08;;;14.60;99.90;;;17.55;56.36;97704.06;5012717;28;20425;-36
2023/05/06 00:25:37;;;;;;;4.53;2.90;;;14.70;99.90;;;17.59;56.33;97700.75;5012798;28;20046;-36
2023/05/06 00:28:04;;;;;;;4.82;3.20;;;14.80;99.90;;;17.66;56.41;97706.97;5012299;28;20113;-37
2023/05/06 00:30:32;;;;;;;3.95;2.80;;;14.80;99.90;;;17.70;56.27;97702.84;4993943;28;20038;-36
2023/05/06 00:32:59;;;;;;;3.05;2.72;;;14.80;99.90;;;17.75;56.20;97694.13;4994451;28;20168;-37
2023/05/06 00:35:27;;;;;;;4.22;2.92;;;14.90;99.90;;;17.78;56.15;97699.13;4994078;28;20041;-37
2023/05/06 00:38:05;;;;;;;3.15;2.65;;;14.90;99.90;;;17.81;56.03;97696.00;4994606;28;20398;-37
2023/05/06 00:40:32;;;;;;;3.65;3.13;;;14.90;99.90;;;17.83;56.13;97699.31;5012065;28;20034;-37
2023/05/06 00:43:01;;;;;;;4.70;3.22;;;14.90;99.90;;;17.85;56.04;97701.84;5008304;28;20053;-37
2023/05/06 00:45:28;;;;;;;4.15;2.78;;;14.80;99.90;;;17.83;56.07;97698.50;5009569;28;20053;-37
2023/05/06 00:47:57;;;;;;;4.95;3.88;;;14.80;99.90;;;17.85;56.07;97712.59;4994747;28;20072;-36
2023/05/06 00:50:27;;;;;;;4.00;2.85;;;14.90;99.90;;;17.87;56.24;97703.31;5011839;28;20057;-37
2023/05/06 00:52:57;;;;;;;5.03;3.60;;;14.90;99.90;;;17.86;56.32;97696.25;5012226;28;20042;-37
2023/05/06 00:55:25;;;;;;;4.90;3.53;;;14.90;99.90;;;17.76;56.60;97689.56;5011827;28;20068;-37
2023/05/06 00:57:53;;;;;;;5.07;3.80;;;14.80;99.90;;;17.74;56.66;97695.19;4986156;28;20421;-37
2023/05/06 01:00:21;;;;;;;5.15;3.08;;;14.80;99.90;;;17.78;56.41;97696.44;5011137;28;20049;-37
2023/05/06 01:02:48;;;;;;;7.72;3.72;;;14.80;99.90;;;17.80;56.50;97694.34;5011868;28;20046;-37
2023/05/06 01:05:21;;;;;;;6.40;4.20;;;14.70;99.90;;;17.77;56.66;97693.94;5009948;28;20398;-37
2023/05/06 01:08:02;;;;;;;5.38;4.18;;;14.80;99.90;;;17.63;56.83;97691.22;5011776;28;20045;-37
2023/05/06 01:10:45;;;;;;;6.60;4.10;;;14.70;99.90;;;17.58;57.02;97698.25;4978087;28;20398;-37
2023/05/06 01:13:37;;;;;;;5.93;4.07;;;14.60;99.90;;;17.61;56.93;97687.09;5010438;28;20045;-36
2023/05/06 01:16:07;;;;;;;5.45;3.95;;;14.60;99.90;;;17.60;57.14;97691.66;4977034;28;20046;-37
2023/05/06 01:18:37;;;;;;;6.13;4.55;;;14.60;99.90;;;17.63;56.90;97693.91;4975597;28;20056;-37
2023/05/06 01:21:05;;;;;;;5.03;4.20;;;14.70;99.90;;;17.65;57.18;97691.84;4969827;28;20042;-37
2023/05/06 01:23:56;;;;;;;5.22;4.00;;;14.70;99.90;;;17.69;56.99;97701.16;5002201;28;20053;-36
2023/05/06 01:26:25;;;;;;;5.03;4.10;;;14.80;99.90;;;17.63;57.13;97698.47;4993948;28;20049;-37
2023/05/06 01:28:54;;;;;;;5.53;4.35;;;14.70;99.90;;;17.63;56.99;97693.09;4993251;28;20050;-36
2023/05/06 01:31:30;;;;;;;6.00;4.40;;;14.60;99.90;;;17.58;57.12;97698.25;5011481;28;20390;-36
2023/05/06 01:34:20;;;;;;;5.47;4.60;;;14.60;99.90;;;17.61;56.91;97692.47;4986936;28;20049;-36
2023/05/06 01:37:37;;;;;;;6.65;4.50;;;14.60;99.90;;;17.63;57.10;97696.59;4985450;28;20513;-36
2023/05/06 01:40:07;;;;;;;6.65;4.85;;;14.60;99.90;;;17.66;57.06;97695.34;5005256;28;20042;-37
2023/05/06 01:42:37;;;;;;;7.22;4.30;;;14.60;99.90;;;17.61;57.36;97695.97;4993295;28;20077;-36
2023/05/06 01:45:07;;;;;;;6.03;4.45;;;14.60;99.90;;;17.66;57.41;97696.22;5002423;28;20049;-36
2023/05/06 01:47:38;;;;;;;5.55;4.60;;;14.70;99.90;;;17.69;57.16;97695.78;5001588;28;20050;-36
2023/05/06 01:50:06;;;;;;;5.22;4.72;;;14.70;99.90;;;17.71;57.01;97695.59;4975698;28;20065;-36
2023/05/06 01:52:34;;;;;;;6.15;5.55;;;14.70;99.90;;;17.64;57.25;97695.59;5008471;28;20053;-36
2023/05/06 01:55:01;;;;;;;6.63;5.03;;;14.60;99.90;;;17.61;57.42;97693.28;4991529;28;20042;-36
2023/05/06 01:57:29;;;;;;;5.38;4.32;;;14.60;99.90;;;17.63;57.41;97691.22;5009070;28;20038;-36
2023/05/06 01:59:57;;;;;;;6.18;4.50;;;14.60;99.90;;;17.60;57.25;97686.28;4993269;28;20038;-36
2023/05/06 02:02:24;;;;;;;5.72;5.05;;;14.60;99.90;;;17.57;57.53;97689.34;4978451;28;20038;-36
2023/05/06 02:04:52;;;;;;;7.05;5.03;;;14.50;99.90;;;17.52;57.65;97687.28;5009210;28;20048;-36
2023/05/06 02:07:20;;;;;;;5.78;4.75;;;14.60;99.90;;;17.52;57.69;97692.66;4984486;28;20054;-36
2023/05/06 02:09:48;;;;;;;7.32;5.82;;;14.50;99.90;;;17.53;57.60;97701.56;4993098;28;20444;-36
2023/05/06 02:12:15;;;;;;;5.60;5.10;;;14.50;99.90;;;17.54;57.61;97702.38;4992720;28;20400;-36
2023/05/06 02:14:43;;;;;;;6.07;5.32;;;14.60;99.90;;;17.43;57.87;97701.16;4993881;28;20046;-36
2023/05/06 02:17:11;;;;;;;5.95;5.28;;;14.50;99.90;;;17.40;57.93;97696.97;4992516;28;20062;-36
2023/05/06 02:19:38;;;;;;;8.02;5.40;;;14.50;99.90;;;17.40;57.83;97686.22;4992993;28;20050;-36
2023/05/06 02:22:06;;;;;;;6.38;5.45;;;14.50;99.90;;;17.41;57.89;97685.19;4993025;28;20042;-36
2023/05/06 02:24:34;;;;;;;5.93;5.32;;;14.50;99.90;;;17.39;57.80;97689.94;4992576;28;20073;-37
2023/05/06 02:27:03;;;;;;;6.47;5.03;;;14.50;99.90;;;17.40;57.81;97688.09;5010300;28;20053;-37
2023/05/06 02:29:30;;;;;;;6.85;5.53;;;14.50;99.90;;;17.38;57.71;97687.47;4995154;28;20405;-36
2023/05/06 02:31:58;;;;;;;8.25;5.75;;;14.40;99.90;;;17.19;58.55;97689.88;5014758;28;20505;-36
2023/05/06 02:34:25;;;;;;;6.80;5.05;;;14.30;99.90;;;17.21;58.20;97687.81;4997288;28;20037;-36
2023/05/06 02:36:53;;;;;;;9.95;5.72;;;14.30;99.90;;;17.17;58.16;97685.75;4997024;28;20191;-37
2023/05/06 02:39:22;;;;;;;8.25;5.45;;;14.20;99.90;;;17.09;58.44;97690.25;4996770;28;20045;-37
2023/05/06 02:41:49;;;;;;;6.03;5.38;;;14.20;99.90;;;17.09;58.33;97682.19;4997158;28;20046;-36
2023/05/06 02:44:18;;;;;;;6.97;5.82;;;14.20;99.90;;;16.99;58.98;97684.44;4996414;28;20046;-36
2023/05/06 02:46:45;;;;;;;5.90;5.30;;;14.20;99.90;;;17.01;58.68;97686.94;5013518;28;20046;-36
2023/05/06 02:49:13;;;;;;;7.47;6.68;;;14.10;99.90;;;16.99;58.48;97676.38;5014482;28;20054;-36
2023/05/06 02:51:40;;;;;;;7.65;5.95;;;14.10;99.90;;;16.96;58.56;97681.31;4997066;28;20049;-36
2023/05/06 02:54:08;;;;;;;5.50;5.00;;;14.10;99.90;;;16.91;58.65;97685.44;4996248;28;20060;-36
2023/05/06 02:56:35;;;;;;;8.43;5.88;;;14.00;99.90;;;16.85;58.64;97677.38;4996352;28;20049;-36
2023/05/06 02:59:04;;;;;;;7.03;5.70;;;13.90;99.90;;;16.79;58.75;97680.78;4995781;28;20046;-36
2023/05/06 03:01:31;;;;;;;7.18;5.88;;;13.90;99.90;;;16.72;58.97;97688.84;4996239;28;20065;-37
2023/05/06 03:03:59;;;;;;;8.00;5.97;;;13.80;99.90;;;16.67;59.02;97680.53;4996165;28;20056;-36
2023/05/06 03:06:27;;;;;;;8.55;6.35;;;13.80;99.90;;;16.68;59.18;97685.72;4995931;28;20403;-36
2023/05/06 03:08:54;;;;;;;10.55;6.07;;;13.80;99.90;;;16.70;58.91;97685.53;4996043;28;20046;-36
2023/05/06 03:11:23;;;;;;;7.78;5.72;;;13.80;99.90;;;16.72;58.62;97678.91;4996046;28;20045;-36
2023/05/06 03:13:50;;;;;;;8.98;6.80;;;13.80;99.90;;;16.74;58.78;97684.09;4995771;28;20050;-36
2023/05/06 03:16:18;;;;;;;8.68;6.53;;;13.90;99.90;;;16.74;58.71;97684.09;5004550;28;20041;-36
2023/05/06 03:18:49;;;;;;;8.65;7.15;;;13.80;99.90;;;16.60;59.18;97691.25;4995575;28;20046;-36
2023/05/06 03:21:17;;;;;;;7.68;6.00;;;13.70;99.90;;;16.54;58.94;97689.38;5013807;28;20049;-36
2023/05/06 03:23:46;;;;;;;8.75;6.07;;;13.60;99.90;;;16.53;59.06;97690.38;4995749;28;20042;-36
2023/05/06 03:26:15;;;;;;;7.03;6.13;;;13.60;99.90;;;16.50;59.03;97686.25;4995267;28;20053;-36
2023/05/06 03:28:44;;;;;;;7.18;6.18;;;13.60;99.90;;;16.48;59.41;97687.47;4987515;28;20505;-36
2023/05/06 03:31:13;;;;;;;10.98;6.00;;;13.60;99.90;;;16.53;58.96;97682.31;5013342;28;20082;-36
2023/05/06 03:33:41;;;;;;;8.70;6.40;;;13.60;99.90;;;16.54;58.94;97678.63;4995103;28;20058;-36
2023/05/06 03:36:12;;;;;;;7.78;5.82;;;13.70;99.90;;;16.57;58.77;97680.91;4995301;28;20052;-36
2023/05/06 03:38:42;;;;;;;6.97;5.68;;;13.70;99.90;;;16.58;58.83;97679.88;4995186;28;20057;-37
2023/05/06 03:41:10;;;;;;;6.82;5.55;;;13.70;99.90;;;16.61;58.47;97675.97;5012046;28;20045;-36
2023/05/06 03:43:38;;;;;;;6.63;5.57;;;13.70;99.90;;;16.61;58.28;97679.47;4995705;28;20050;-36
2023/05/06 03:46:06;;;;;;;6.68;6.00;;;13.70;99.90;;;16.61;58.30;97674.09;4995436;28;20042;-36
2023/05/06 03:48:36;;;;;;;9.07;6.40;;;13.70;99.90;;;16.59;58.26;97669.94;5012983;28;20113;-36
2023/05/06 03:51:07;;;;;;;9.07;6.35;;;13.70;99.90;;;16.60;58.27;97666.25;4995634;28;20093;-36
2023/05/06 03:53:35;;;;;;;6.93;5.75;;;13.70;99.90;;;16.60;58.23;97669.75;4995459;28;20053;-36
2023/05/06 03:56:04;;;;;;;8.13;6.07;;;13.70;99.90;;;16.60;58.22;97672.44;4995071;28;20194;-36
2023/05/06 03:58:33;;;;;;;7.38;5.85;;;13.70;99.90;;;16.57;58.24;97670.16;4994509;28;20041;-36
2023/05/06 04:01:01;;;;;;;5.70;4.82;;;13.70;99.90;;;16.53;58.06;97667.03;4988057;28;20042;-37
2023/05/06 04:03:29;;;;;;;8.48;5.85;;;13.60;99.90;;;16.53;57.89;97664.34;4987303;28;20048;-37
2023/05/06 04:05:57;;;;;;;7.32;5.85;;;13.60;99.90;;;16.53;57.95;97667.03;4994560;28;20049;-37
2023/05/06 04:08:26;;;;;;;7.35;5.80;;;13.70;99.90;;;16.54;57.89;97671.38;4995089;28;20528;-37
2023/05/06 04:10:54;;;;;;;6.10;5.10;;;13.60;99.90;;;16.55;57.93;97672.19;4994918;28;20053;-37
2023/05/06 04:13:27;;;;;;;7.90;5.00;;;13.70;99.90;;;16.53;57.66;97672.41;5013009;28;20417;-37
2023/05/06 04:15:57;;;;;;;6.65;4.95;;;13.60;99.90;;;16.53;57.74;97674.25;4994339;28;20501;-37
2023/05/06 04:18:31;;;;;;;6.63;6.03;;;13.60;99.90;;;16.47;58.17;97675.06;4994909;28;20080;-37
2023/05/06 04:21:03;;;;;;;7.80;6.53;;;13.50;99.90;;;16.45;57.92;97671.75;4979905;28;20056;-37
2023/05/06 04:23:34;;;;;;;8.45;5.65;;;13.50;99.90;;;16.37;57.98;97679.97;4994976;28;20045;-37
2023/05/06 04:26:01;;;;;;;7.47;4.85;;;13.40;99.90;;;16.35;58.09;97680.16;4986550;28;20056;-37
2023/05/06 04:28:31;;;;;;;7.28;4.90;;;13.40;99.90;;;16.37;57.95;97678.09;4994004;28;20057;-37
2023/05/06 04:31:01;;;;;;;8.43;5.30;;;13.40;99.90;;;16.39;58.00;97675.22;4986674;28;20398;-37
2023/05/06 04:33:39;;;;;;;8.13;5.18;;;13.40;99.90;;;16.39;57.74;97677.91;4994614;28;20497;-37
2023/05/06 04:36:11;;;;;;;6.18;5.25;;;13.40;99.90;;;16.36;57.66;97678.28;4994920;28;20044;-37
2023/05/06 04:38:46;;;;;;;;;;;13.40;99.90;;;16.43;57.33;97677.31;4995116;28;20050;-37
2023/05/06 04:41:14;;;;;;;5.90;4.57;;;13.30;99.90;;;16.38;57.21;97677.09;4993963;28;19921;-37
2023/05/06 04:43:42;;;;;;;7.22;4.82;;;13.30;99.90;;;16.26;57.88;97682.16;4994222;28;20429;-37
2023/05/06 04:46:16;;;;;;;6.03;5.32;;;13.20;99.90;;;16.26;57.97;97682.16;4994443;28;20061;-37
2023/05/06 04:48:46;;;;;;;7.65;4.90;;;13.20;99.90;;;16.25;58.10;97680.50;4976115;28;20497;-37
2023/05/06 04:51:15;;;;;;;9.68;5.43;;;13.30;99.90;;;16.27;57.95;97678.47;4993887;28;20081;-37
2023/05/06 04:53:42;;;;;;;6.45;5.25;;;13.30;99.90;;;16.30;58.13;97687.97;5011857;28;20414;-37
2023/05/06 04:56:10;;;;;;;6.35;5.10;;;13.30;99.90;;;16.31;58.23;97687.78;4993165;28;20469;-37
2023/05/06 04:58:38;;;;;;;6.82;4.90;;;13.40;99.90;;;16.30;58.42;97687.97;4993505;28;20050;-37
2023/05/06 05:01:08;;;;;;;6.15;5.13;;;13.40;99.90;;;16.29;58.29;97686.31;4994090;28;20053;-37
2023/05/06 05:03:36;;;;;;;5.43;4.55;;;13.40;99.90;;;16.35;58.36;97698.97;4993954;28;20513;-37
2023/05/06 05:06:05;;;;;;;7.35;5.07;;;13.50;99.90;;;16.38;58.28;97698.59;4985552;28;20046;-37
2023/05/06 05:08:32;;;;;;;9.27;4.90;;;13.50;99.90;;;16.43;58.38;97697.97;5011649;28;20057;-37
2023/05/06 05:11:01;;;;;;;6.93;5.07;;;13.60;99.90;;;16.45;58.49;97701.31;4985973;28;20057;-37
2023/05/06 05:13:30;;;;;;;6.53;4.65;;;13.60;99.90;;;16.49;58.55;97711.44;4993324;28;20046;-37
2023/05/06 05:15:58;;;;;;;5.93;4.40;;;13.60;99.90;;;16.54;58.33;97706.31;4985279;28;20050;-37
2023/05/06 05:18:29;;;;;;;7.35;4.47;;;13.70;99.90;;;16.60;58.31;97718.13;4993551;28;20418;-37
2023/05/06 05:21:03;;;;;;;8.82;5.38;;;13.80;99.90;;;16.58;58.38;97711.31;4993928;28;20116;-37
2023/05/06 05:23:31;;;;;;;5.57;4.35;;;13.80;99.90;;;16.53;58.48;97717.25;4993326;28;20053;-37
2023/05/06 05:26:00;;;;;;;6.07;4.53;;;13.70;99.90;;;16.56;58.62;97714.19;4993200;28;20473;-37
2023/05/06 05:28:28;;;;;;;6.88;4.68;;;13.70;99.90;;;16.61;58.58;97722.47;4977288;28;20494;-37
2023/05/06 05:31:04;;;;;;;5.13;4.30;;;13.80;99.90;;;16.67;58.67;97726.22;4976587;28;20057;-37
2023/05/06 05:33:35;;;;;;;8.18;4.28;;;13.90;99.90;;;16.70;58.59;97723.97;4985827;28;20064;-37
2023/05/06 05:36:06;;;;;;;5.30;3.75;;;13.90;99.90;;;16.57;59.15;97723.06;4985674;28;20057;-37
2023/05/06 05:38:35;;;;;;;4.65;3.35;;;13.90;99.90;;;16.69;58.81;97726.84;4978218;28;20046;-37
2023/05/06 05:41:03;;;;;;;6.80;4.13;;;13.90;99.90;;;16.67;59.13;97728.91;4993376;28;20068;-37
2023/05/06 05:43:31;;;;;;;4.97;3.78;;;13.90;99.90;;;16.70;59.04;97731.22;4993867;28;20078;-37
2023/05/06 05:46:01;;;;;;;5.72;3.72;;;13.90;99.90;;;16.80;59.03;97728.16;4993952;28;20525;-37
2023/05/06 05:48:31;;;;;;;9.57;4.00;;;14.00;99.90;;;16.84;59.20;97724.91;4993325;28;20046;-37
2023/05/06 05:51:01;;;;;;;5.32;3.92;;;14.10;99.90;;;16.87;58.82;97731.75;4993096;28;20180;-37
2023/05/06 05:53:30;;;;;;;6.63;4.30;;;14.20;99.90;;;17.00;58.88;97728.28;4974180;28;20053;-37
2023/05/06 05:55:57;;;;;;;5.07;3.55;;;14.20;99.90;;;16.92;59.06;97727.44;4992798;28;20046;-37
2023/05/06 05:58:25;;;;;;;6.47;4.20;;;14.10;99.90;;;16.90;59.46;97728.66;4992993;28;20038;-37
2023/05/06 06:00:56;;;;;;;3.75;3.30;;;14.10;99.90;;;16.91;59.53;97722.25;5010133;28;20064;-37
2023/05/06 06:03:24;;;;;;;5.07;4.15;;;14.20;99.90;;;17.02;59.34;97736.97;4993233;28;20416;-37
2023/05/06 06:05:54;;;;;;;5.50;3.72;;;14.30;99.90;;;16.93;59.33;97741.72;4996738;28;20041;-37
2023/05/06 06:08:23;;;;;;;6.20;4.18;;;14.20;99.90;;;17.04;59.09;97741.16;4997040;28;20050;-37
2023/05/06 06:10:52;;;;;;;5.70;4.20;;;14.30;99.90;;;17.07;58.96;97740.75;4996866;28;20050;-37
2023/05/06 06:13:24;;;;;;;6.28;4.43;;;14.30;99.90;;;17.15;58.90;97738.91;4997301;28;20524;-37
2023/05/06 06:15:59;;;;;;;6.15;4.03;;;14.30;99.90;;;17.21;58.89;97738.94;4986515;28;20050;-37
2023/05/06 06:18:27;;;;;;;5.50;4.30;;;14.40;99.90;;;17.23;58.82;97736.88;5014835;28;20502;-37
2023/05/06 06:20:54;;;;;;;5.07;3.80;;;14.40;99.90;;;17.13;58.91;97747.19;4996738;28;20073;-37
2023/05/06 06:23:23;;;;;;;4.82;3.88;;;14.40;99.90;;;17.27;58.74;97743.53;4994606;28;20045;-37
2023/05/06 06:25:50;;;;;;;8.55;4.40;;;14.50;99.90;;;17.38;58.54;97735.91;5010647;28;20058;-37
2023/05/06 06:28:18;;;;;;;4.28;3.63;;;14.60;99.90;;;17.41;58.43;97741.69;4996952;28;20049;-37
2023/05/06 06:30:46;;;;;;;4.13;3.72;;;14.70;99.90;;;17.54;58.42;97743.59;4997382;28;20053;-37
2023/05/06 06:33:14;;;;;;;5.05;3.78;;;14.80;99.90;;;17.54;58.16;97748.16;4996660;28;20057;-37
2023/05/06 06:35:41;;;;;;;4.93;4.20;;;14.80;99.90;;;17.45;58.66;97751.03;4988564;28;20057;-37
2023/05/06 06:38:09;;;;;;;6.03;3.97;;;14.70;99.90;;;17.49;58.15;97759.53;4988311;28;20049;-37
2023/05/06 06:40:36;;;;;;;6.05;3.83;;;14.70;99.90;;;17.54;58.08;97757.03;5014811;28;20049;-37
2023/05/06 06:43:04;;;;;;;5.07;4.05;;;14.70;99.90;;;17.61;58.24;97760.59;5014415;28;20046;-37
2023/05/06 06:45:49;;;;;;;5.40;3.78;;;14.90;99.90;;;17.53;58.11;97763.47;4996481;28;20045;-37
2023/05/06 06:48:17;;;;;;;5.82;3.67;;;14.80;99.90;;;17.65;57.76;97769.91;4997138;28;20046;-37
2023/05/06 06:50:45;;;;;;;4.82;3.45;;;14.80;99.90;;;17.63;57.54;97761.22;5014694;28;20076;-37
2023/05/06 06:53:13;;;;;;;8.07;3.63;;;14.80;99.90;;;17.58;57.49;97757.47;5014354;28;20045;-37
2023/05/06 06:55:44;;;;;;;6.38;4.07;;;14.70;99.90;;;17.64;57.69;97760.19;5014201;28;20057;-37
2023/05/06 06:58:12;;;;;;;4.88;3.50;;;14.90;99.90;;;17.68;57.47;97760.59;5006528;28;20513;-38
2023/05/06 07:00:39;;;;;;;6.97;5.10;;;14.90;99.90;;;17.73;57.43;97758.13;5013627;28;20082;-37
2023/05/06 07:03:07;;;;;;;5.30;4.03;;;15.00;99.90;;;17.76;57.14;97763.13;5014186;28;20041;-37
2023/05/06 07:05:34;;;;;;;4.28;3.53;;;15.00;99.90;;;17.80;56.92;97766.25;5013723;28;20046;-37
2023/05/06 07:08:02;;;;;;;5.25;3.75;;;15.00;99.90;;;17.85;56.89;97769.16;5013867;28;20042;-37
2023/05/06 07:10:30;;;;;;;4.47;3.85;;;15.10;99.90;;;17.93;56.86;97768.13;5014182;28;20041;-37
2023/05/06 07:12:57;;;;;;;6.22;3.45;;;15.20;99.90;;;17.98;56.75;97766.50;5013936;28;20042;-37
2023/05/06 07:15:25;;;;;;;5.13;3.78;;;15.30;99.90;;;17.99;56.42;97770.00;5013467;28;20046;-37
2023/05/06 07:17:52;;;;;;;4.90;3.92;;;15.30;99.90;;;18.08;56.58;97772.28;5013464;28;20041;-37
2023/05/06 07:20:20;;;;;;;4.03;2.78;;;15.40;99.90;;;18.05;55.82;97770.03;5013890;28;20387;-37
2023/05/06 07:22:47;;;;;;;4.03;3.03;;;15.30;99.90;;;17.95;56.22;97766.06;5013694;28;20044;-37
2023/05/06 07:25:15;;;;;;;3.72;3.15;;;15.30;99.90;;;18.08;56.10;97772.28;5013348;28;20042;-37
2023/05/06 07:27:42;;;;;;;3.95;3.28;;;15.40;99.90;;;18.05;55.37;97775.41;5013475;28;20046;-37
2023/05/06 07:30:10;;;;;;;4.97;2.63;;;15.40;99.90;;;18.10;55.19;97772.91;4996192;28;20049;-37
2023/05/06 07:32:40;;;;;;;4.18;2.80;;;15.50;99.90;;;18.27;54.92;97773.34;5013584;28;20046;-37
2023/05/06 07:35:08;;;;;;;6.18;3.30;;;15.60;99.90;;;18.16;54.92;97770.44;5013042;28;20038;-37
2023/05/06 07:37:36;;;;;;;5.80;2.95;;;15.60;99.90;;;18.23;54.95;97773.97;5013309;28;20038;-37
2023/05/06 07:40:04;;;;;;;4.43;2.55;;;15.60;99.90;;;18.26;53.98;97766.31;5013212;28;20050;-37
2023/05/06 07:42:31;;;;;;;2.85;2.58;;;15.60;99.90;;;18.31;53.11;97762.97;5013473;28;20126;-37
2023/05/06 07:44:59;;;;;;;2.67;2.45;;;15.70;99.90;;;18.38;53.13;97768.34;5013178;28;20046;-37
2023/05/06 07:47:30;;;;;;;2.50;2.17;;;15.70;99.90;;;18.40;53.14;97769.81;5013127;28;20060;-37
2023/05/06 07:49:59;;;;;;;3.55;1.90;;;15.80;99.90;;;18.50;52.34;97764.00;5013380;28;20050;-37
2023/05/06 07:52:27;;;;;;;3.72;2.10;;;15.90;99.90;;;18.58;52.04;97769.19;4996158;28;20049;-37
2023/05/06 07:54:54;;;;;;;4.43;2.38;;;15.90;98.70;;;18.62;52.22;97773.09;5013143;28;20054;-37
2023/05/06 07:57:22;;;;;;;4.30;2.40;;;16.00;99.90;;;18.61;51.87;97774.16;4992299;28;20046;-37
2023/05/06 07:59:51;;;;;;;5.53;2.28;;;15.90;98.90;;;18.67;52.24;97777.91;5012282;28;20041;-37
2023/05/06 08:02:19;;;;;;;2.90;2.30;;;16.00;99.90;;;18.80;52.23;97777.06;4995475;28;20058;-37
2023/05/06 08:04:47;;;;;;;3.42;2.00;;;16.20;99.90;;;18.87;51.63;97777.88;5012916;28;20061;-37
2023/05/06 08:07:18;;;;;;;3.10;2.47;;;16.20;96.70;;;18.98;51.79;97782.63;5005576;28;20069;-37
2023/05/06 08:09:45;;;;;;;4.15;2.70;;;16.40;98.90;;;19.07;50.77;97791.31;4980777;28;20050;-37
2023/05/06 08:12:14;;;;;;;2.40;2.20;;;16.40;90.80;;;19.00;50.20;97785.09;5012750;28;20049;-37
2023/05/06 08:14:42;;;;;;;4.38;2.10;;;16.30;92.00;;;18.99;49.93;97792.38;4995208;28;20054;-37
2023/05/06 08:17:09;;;;;;;2.58;1.90;;;16.30;91.20;;;19.03;49.83;97780.09;4994950;28;20042;-37
2023/05/06 08:19:37;;;;;;;2.78;1.95;;;16.30;91.90;;;19.13;50.33;97784.22;5013063;28;20050;-37
2023/05/06 08:22:04;;;;;;;4.47;2.13;;;16.50;92.80;;;19.27;50.36;97788.56;5012666;28;20042;-37
2023/05/06 08:24:32;;;;;;;3.03;1.98;;;16.70;93.50;;;19.22;49.28;97789.19;5012923;28;20041;-37
2023/05/06 08:26:59;;;;;;;3.63;2.53;;;16.60;85.50;;;19.05;49.22;97796.09;5002627;28;20517;-37
2023/05/06 08:29:27;;;;;;;2.80;1.90;;;16.40;88.40;;;19.06;49.36;97789.66;5012158;28;20049;-37
2023/05/06 08:31:55;;;;;;;2.70;2.40;;;16.40;88.90;;;19.22;49.62;97791.06;5012486;28;20050;-37
2023/05/06 08:34:22;;;;;;;2.92;2.10;;;16.50;89.40;;;19.30;49.07;97787.28;5003423;28;20056;-37
2023/05/06 08:36:50;;;;;;;3.80;1.85;;;16.60;86.30;;;19.38;49.21;97787.03;5013038;28;20178;-37
2023/05/06 08:39:17;;;;;;;2.10;1.63;;;16.70;88.20;;;19.31;48.34;97784.38;5012126;28;20046;-37
2023/05/06 08:41:48;;;;;;;2.50;2.05;;;16.70;83.40;;;19.20;48.52;97787.75;5013016;28;20045;-37
2023/05/06 08:44:19;;;;;;;2.65;2.25;;;16.60;82.00;;;19.30;48.16;97790.00;4971392;28;20037;-37
2023/05/06 08:46:47;;;;;;;3.08;2.45;;;16.60;80.20;;;19.41;48.50;97789.34;4995179;28;20494;-37
2023/05/06 08:49:15;;;;;;;4.15;2.30;;;16.70;84.30;;;19.52;48.16;97790.50;5002694;28;20413;-37
2023/05/06 08:51:44;;;;;;;2.03;1.85;;;16.90;83.10;;;19.74;48.04;97786.50;5012487;28;20503;-37
2023/05/06 08:54:12;;;;;;;1.90;1.70;;;17.10;82.40;;;19.86;47.40;97790.16;5012395;28;20057;-37
2023/05/06 08:56:51;;;;;;;3.22;1.90;;;17.20;80.10;;;19.93;47.29;97782.03;5012357;28;20052;-37
2023/05/06 08:59:24;;;;;;;3.08;2.42;;;17.30;78.70;;;19.86;46.82;97786.63;5011962;28;20041;-37
2023/05/06 09:01:52;;;;;;;2.17;1.65;;;17.20;74.90;;;19.85;46.37;97784.97;5012072;28;20047;-37
2023/05/06 09:04:20;;;;;;;2.45;1.70;;;17.10;73.50;;;19.81;46.26;97784.59;5012268;28;20049;-37
2023/05/06 09:06:47;;;;;;;3.15;2.00;;;17.10;75.20;;;19.90;46.64;97790.56;4995292;28;20053;-37
2023/05/06 09:09:15;;;;;;;2.42;2.00;;;17.20;77.20;;;19.96;46.24;97786.97;4994275;28;20041;-37
2023/05/06 09:11:43;;;;;;;2.50;2.30;;;17.30;73.60;;;20.03;45.85;97786.94;5002975;28;20046;-37
2023/05/06 09:14:13;;;;;;;2.88;2.00;;;17.40;72.40;;;20.11;45.95;97781.25;5012120;28;20046;-37
2023/05/06 09:16:48;;;;;;;3.30;1.83;;;17.50;73.20;;;20.22;45.94;97777.88;4994132;28;20053;-38
2023/05/06 09:19:17;;;;;;;2.20;1.98;;;17.50;72.70;;;20.31;46.31;97781.09;5011437;28;20046;-38
2023/05/06 09:21:48;;;;;;;2.85;1.90;;;17.60;72.40;;;20.38;45.84;97779.19;5012048;28;20041;-37
2023/05/06 09:24:16;;;;;;;4.65;1.80;;;17.70;72.80;;;20.48;45.03;97783.28;5011931;28;20038;-37
2023/05/06 09:26:45;;;;;;;2.22;1.80;;;17.80;70.80;;;20.54;43.64;97785.91;4994577;28;20116;-37
2023/05/06 09:29:13;;;;;;;2.03;1.65;;;17.80;65.20;;;20.42;43.66;97783.09;5010710;28;20056;-37
2023/05/06 09:31:46;;;;;;;2.85;1.63;;;17.70;67.80;;;20.30;42.91;97773.22;5011932;28;20046;-37
2023/05/06 09:34:14;;;;;;;2.33;1.70;;;17.70;64.60;;;20.50;43.31;97773.88;5011795;28;20056;-37
2023/05/06 09:36:43;;;;;;;1.90;1.70;;;17.80;66.20;;;20.53;43.33;97769.91;4993975;28;20057;-37
2023/05/06 09:39:10;;;;;;;4.03;1.70;;;17.80;67.00;;;20.56;43.25;97764.88;4993610;28;20046;-37
2023/05/06 09:41:38;;;;;;;4.30;2.00;;;17.80;67.10;;;20.54;43.99;97777.78;5012185;28;20049;-37
2023/05/06 09:44:06;;;;;;;2.20;1.83;;;17.90;67.90;;;20.71;43.52;97778.09;4994189;28;20153;-37
2023/05/06 09:46:33;;;;;;;2.40;1.77;;;18.10;67.60;;;20.84;42.93;97772.56;5011692;28;20515;-37
2023/05/06 09:49:01;;;;;;;1.90;1.67;;;18.30;66.20;;;20.97;42.64;97770.75;5011220;28;20445;-37
2023/05/06 09:51:29;;;;;;;1.85;1.73;;;18.40;65.40;;;21.10;43.24;97767.91;5011381;28;20049;-37
2023/05/06 09:53:59;;;;;;;1.80;1.67;;;18.50;65.70;;;21.22;43.07;97762.56;5011419;28;20501;-37
2023/05/06 09:56:29;;;;;;;2.20;2.00;;;18.70;65.80;;;21.33;43.07;97761.78;4975334;28;20402;-37
2023/05/06 09:59:00;;;;;;;2.22;2.03;;;18.80;66.20;;;21.30;42.80;97762.25;5007899;28;20046;-37
2023/05/06 10:01:29;;;;;;;2.63;1.85;;;18.80;64.90;;;21.27;42.09;97764.56;5002066;28;20474;-37
2023/05/06 10:04:08;;;;;;;2.97;2.10;;;18.80;63.50;;;21.32;42.40;97760.13;5002717;28;20409;-37
2023/05/06 10:06:39;;;;;;;2.92;2.03;;;18.70;63.10;;;21.36;42.30;97750.50;4992609;28;20506;-37
2023/05/06 10:09:08;;;;;;;2.30;2.05;;;18.70;63.70;;;21.41;42.19;97752.53;4993406;28;20061;-37
2023/05/06 10:11:36;;;;;;;3.45;1.90;;;18.80;63.60;;;21.50;42.45;97753.06;5011261;28;20050;-37
2023/05/06 10:14:03;;;;;;;2.72;2.20;;;18.90;64.10;;;21.47;42.35;97748.94;5011141;28;20453;-37
2023/05/06 10:16:34;;;;;;;3.42;2.10;;;18.80;64.30;;;21.49;42.14;97752.25;4991949;28;20053;-37
2023/05/06 10:19:05;;;;;;;3.42;1.92;;;18.90;61.60;;;21.28;41.91;97752.69;5008163;28;20046;-37
2023/05/06 10:21:38;;;;;;;2.20;2.00;;;18.70;62.10;;;21.29;42.06;97741.66;5001236;28;20050;-37
2023/05/06 10:24:12;;;;;;;2.45;1.90;;;18.70;62.80;;;21.28;41.92;97748.09;5002258;28;20038;-37
2023/05/06 10:26:43;;;;;;;2.20;1.85;;;18.70;63.00;;;21.34;42.46;97738.25;4989979;28;20054;-37
2023/05/06 10:29:12;;;;;;;4.00;1.95;;;18.80;63.40;;;21.36;42.42;97745.06;4990696;28;20042;-37